Time;durP1;ratioP1;P1;durP2;ratioP2;P2;SDS_P1;SDS_P2;PMS_P1;PMS_P2;Temp;Humidity;BMP_temperature;BMP_pressure;BME280_temperature;BME280_humidity;BME280_pressure;Samples;Min_cycle;Max_cycle;Signal;HPM_P1;HPM_P2
2022/08/20 00:01:25;;;;;;;5.73;4.80;;;26.50;81.70;;;;;;5043024;28;20191;-91
2022/08/20 00:03:52;;;;;;;5.27;4.77;;;26.60;82.50;;;;;;5046653;28;20186;-91
2022/08/20 00:06:21;;;;;;;5.00;4.50;;;26.50;83.30;;;;;;5032764;28;20492;-89
2022/08/20 00:08:48;;;;;;;5.17;4.33;;;26.50;81.40;;;;;;5053079;28;20454;-90
2022/08/20 00:11:24;;;;;;;5.60;4.13;;;26.60;81.30;;;;;;5034453;28;20440;-90
2022/08/20 00:13:53;;;;;;;4.67;4.20;;;26.50;82.30;;;;;;5034592;28;20367;-89
2022/08/20 00:16:22;;;;;;;4.30;3.90;;;26.50;81.50;;;;;;5039143;28;20418;-91
2022/08/20 00:22:15;;;;;;;2.93;2.63;;;26.50;86.40;;;;;;5047693;28;20277;-93
2022/08/20 00:24:53;;;;;;;4.57;3.40;;;26.20;90.20;;;;;;5013854;28;20237;-93
2022/08/20 00:27:39;;;;;;;3.90;3.50;;;26.20;88.30;;;;;;5027206;28;20310;-92
2022/08/20 00:30:07;;;;;;;4.10;3.70;;;26.20;87.80;;;;;;5032105;28;20171;-91
2022/08/20 00:32:49;;;;;;;3.20;2.90;;;26.20;86.70;;;;;;5012681;28;20332;-92
2022/08/20 00:35:17;;;;;;;2.13;1.93;;;26.30;90.60;;;;;;5051224;28;20545;-91
2022/08/20 00:37:44;;;;;;;2.00;1.80;;;25.70;92.90;;;;;;5036176;28;20266;-92
2022/08/20 00:47:03;;;;;;;3.97;3.10;;;25.60;91.80;;;;;;5045391;28;20496;-92
2022/08/20 00:49:31;;;;;;;2.83;2.60;;;25.80;90.90;;;;;;5050451;28;20167;-91
2022/08/20 00:52:11;;;;;;;3.33;2.50;;;25.90;90.90;;;;;;5046751;28;20384;-91
2022/08/20 00:54:45;;;;;;;2.40;2.20;;;25.90;91.60;;;;;;5027648;28;20551;-91
2022/08/20 00:57:29;;;;;;;2.80;2.50;;;25.90;91.70;;;;;;5024012;28;20190;-91
2022/08/20 00:59:57;;;;;;;2.87;2.33;;;25.90;92.00;;;;;;5048524;28;20167;-91
2022/08/20 01:02:54;;;;;;;2.73;2.53;;;25.90;92.10;;;;;;5038252;28;20332;-91
2022/08/20 01:09:02;;;;;;;2.90;2.60;;;25.90;91.70;;;;;;5023554;28;20183;-91
2022/08/20 01:11:43;;;;;;;3.00;2.70;;;25.90;91.00;;;;;;4995800;28;20173;-92
2022/08/20 01:14:35;;;;;;;3.17;2.70;;;25.90;90.80;;;;;;5013668;28;20189;-91
2022/08/20 01:17:22;;;;;;;4.47;3.50;;;26.00;91.10;;;;;;5003381;28;20181;-91
2022/08/20 01:20:09;;;;;;;3.63;3.33;;;26.00;91.30;;;;;;4981748;28;20531;-91
2022/08/20 01:25:40;;;;;;;2.90;2.60;;;26.00;91.30;;;;;;4987450;28;20196;-92
2022/08/20 01:28:19;;;;;;;3.20;2.87;;;25.90;90.70;;;;;;4965350;28;20832;-91
2022/08/20 01:34:41;;;;;;;4.07;2.73;;;26.00;90.90;;;;;;5016513;28;20234;-92
2022/08/20 01:37:07;;;;;;;3.30;2.73;;;26.00;91.00;;;;;;4974404;28;20181;-91
2022/08/20 01:39:35;;;;;;;5.20;4.80;;;26.00;90.80;;;;;;4998016;28;20377;-91
2022/08/20 01:42:37;;;;;;;4.33;3.93;;;26.00;91.40;;;;;;4975781;28;20218;-91
2022/08/20 01:45:04;;;;;;;3.60;3.30;;;26.00;91.10;;;;;;4993512;28;20771;-91
2022/08/20 01:47:31;;;;;;;3.27;2.97;;;26.00;91.00;;;;;;5031448;28;20242;-91
2022/08/20 01:50:02;;;;;;;3.40;3.10;;;26.00;91.20;;;;;;5036356;28;20552;-91
2022/08/20 01:55:50;;;;;;;3.80;3.37;;;26.00;91.00;;;;;;5046048;28;20266;-91
2022/08/20 01:58:16;;;;;;;3.80;3.03;;;26.00;90.70;;;;;;5044539;28;20254;-92
2022/08/20 02:00:42;;;;;;;3.50;3.20;;;26.00;90.70;;;;;;5028704;28;20472;-91
2022/08/20 02:03:12;;;;;;;2.87;2.53;;;26.00;90.70;;;;;;5039483;28;20183;-91
2022/08/20 02:05:38;;;;;;;4.73;3.53;;;26.00;90.70;;;;;;4988329;28;20518;-92
2022/08/20 02:08:04;;;;;;;4.93;3.53;;;26.10;90.70;;;;;;4997650;28;20163;-92
2022/08/20 02:10:34;;;;;;;3.97;3.40;;;26.00;90.80;;;;;;4972667;28;20439;-92
2022/08/20 02:13:01;;;;;;;3.20;2.90;;;26.00;90.70;;;;;;4986510;28;20194;-92
2022/08/20 02:15:27;;;;;;;3.43;2.73;;;26.00;90.70;;;;;;5041042;28;20545;-93
2022/08/20 02:18:21;;;;;;;3.20;2.80;;;26.00;91.00;;;;;;5036852;28;20186;-92
2022/08/20 02:20:49;;;;;;;4.27;3.00;;;26.00;90.80;;;;;;5051293;28;20180;-92
2022/08/20 02:24:01;;;;;;;4.20;3.63;;;26.00;90.90;;;;;;5030994;28;20376;-92
2022/08/20 02:27:02;;;;;;;4.27;3.47;;;26.00;90.80;;;;;;5031168;28;20328;-92
2022/08/20 02:29:30;;;;;;;3.80;3.50;;;26.00;90.90;;;;;;4953278;28;20167;-92
2022/08/20 02:32:11;;;;;;;3.73;3.43;;;26.00;90.90;;;;;;5020215;28;20286;-92
2022/08/20 02:34:37;;;;;;;3.77;3.37;;;26.00;90.90;;;;;;5038630;28;20167;-92
2022/08/20 02:37:05;;;;;;;4.20;3.90;;;26.00;90.90;;;;;;5035481;28;20190;-92
2022/08/20 02:39:32;;;;;;;3.93;3.53;;;26.00;91.10;;;;;;5032264;28;20320;-92
2022/08/20 02:42:03;;;;;;;3.83;3.43;;;26.00;91.10;;;;;;5027691;28;20171;-92
2022/08/20 02:44:37;;;;;;;3.67;3.37;;;26.00;91.20;;;;;;5028723;28;20180;-92
2022/08/20 02:47:05;;;;;;;3.37;3.07;;;26.00;91.20;;;;;;5014205;28;20306;-91
2022/08/20 02:52:53;;;;;;;3.97;3.57;;;26.00;91.20;;;;;;5047633;28;20229;-91
2022/08/20 02:55:20;;;;;;;4.10;3.70;;;25.90;91.30;;;;;;5002215;28;20179;-91
2022/08/20 02:57:46;;;;;;;3.50;3.20;;;25.90;91.40;;;;;;5006622;28;20179;-92
2022/08/20 03:00:15;;;;;;;4.07;3.67;;;26.00;91.50;;;;;;5046526;28;20465;-92
2022/08/20 03:02:44;;;;;;;5.90;5.40;;;25.90;91.80;;;;;;5015688;28;20252;-91
2022/08/20 03:05:13;;;;;;;5.07;4.57;;;25.90;91.80;;;;;;5028059;28;20297;-91
2022/08/20 03:07:47;;;;;;;7.43;6.67;;;25.90;92.00;;;;;;5029355;28;20588;-92
2022/08/20 03:10:25;;;;;;;8.20;7.40;;;25.90;92.50;;;;;;5020758;28;20197;-92
2022/08/20 03:13:02;;;;;;;4.27;3.87;;;25.80;92.80;;;;;;5022664;28;20460;-91
2022/08/20 03:15:29;;;;;;;4.47;3.73;;;25.80;92.30;;;;;;5022710;28;20426;-91
2022/08/20 03:17:59;;;;;;;4.23;3.83;;;25.80;92.20;;;;;;5044726;28;20234;-92
2022/08/20 03:20:26;;;;;;;4.03;3.63;;;25.80;92.30;;;;;;5046792;28;20199;-91
2022/08/20 03:26:15;;;;;;;4.20;3.83;;;25.80;92.50;;;;;;5058278;28;20221;-91
2022/08/20 03:28:41;;;;;;;3.97;3.60;;;25.80;92.30;;;;;;5003327;28;20439;-91
2022/08/20 03:31:07;;;;;;;3.93;3.57;;;25.80;92.30;;;;;;5001236;28;20444;-92
2022/08/20 03:33:33;;;;;;;5.13;4.07;;;25.80;92.20;;;;;;5034082;28;20178;-91
2022/08/20 03:36:14;;;;;;;7.83;6.80;;;25.80;92.40;;;;;;5044943;28;20332;-92
2022/08/20 03:38:41;;;;;;;5.10;4.60;;;25.80;92.40;;;;;;5033673;28;20548;-92
2022/08/20 03:41:16;;;;;;;3.67;3.37;;;25.70;92.70;;;;;;5030632;28;20232;-92
2022/08/20 03:43:41;;;;;;;3.93;3.63;;;25.70;92.50;;;;;;5034905;28;20183;-91
2022/08/20 03:46:09;;;;;;;4.23;3.83;;;25.70;92.50;;;;;;5009261;28;20520;-91
2022/08/20 03:48:36;;;;;;;5.87;4.40;;;25.70;92.50;;;;;;5019644;28;20257;-92
2022/08/20 03:51:02;;;;;;;4.00;3.60;;;25.70;92.50;;;;;;5037850;28;20179;-91
2022/08/20 03:53:30;;;;;;;3.87;3.57;;;25.70;92.50;;;;;;5024491;28;20222;-92
2022/08/20 03:55:59;;;;;;;4.10;3.37;;;25.70;92.50;;;;;;5029051;28;20185;-92
2022/08/20 03:58:27;;;;;;;3.90;3.30;;;25.70;92.60;;;;;;5030577;28;20222;-92
2022/08/20 04:00:54;;;;;;;4.30;3.73;;;25.70;92.40;;;;;;5033702;28;20172;-92
2022/08/20 04:03:24;;;;;;;3.87;3.57;;;25.70;92.50;;;;;;4993693;28;20254;-92
2022/08/20 04:05:54;;;;;;;3.47;3.07;;;25.70;92.50;;;;;;5057038;28;20175;-92
2022/08/20 04:08:28;;;;;;;4.43;3.90;;;25.70;92.50;;;;;;5033803;28;20180;-92
2022/08/20 04:10:58;;;;;;;5.00;3.67;;;25.70;92.50;;;;;;5044710;28;20171;-91
2022/08/20 04:13:27;;;;;;;4.03;3.70;;;25.70;92.60;;;;;;5032098;28;20476;-91
2022/08/20 04:16:46;;;;;;;4.20;3.40;;;25.70;92.60;;;;;;5033502;28;20254;-92
2022/08/20 04:19:13;;;;;;;4.20;3.90;;;25.70;92.60;;;;;;5027929;28;20454;-92
2022/08/20 04:21:47;;;;;;;5.03;4.23;;;25.60;92.60;;;;;;5043832;28;20179;-91
2022/08/20 04:24:34;;;;;;;3.70;3.30;;;25.70;92.70;;;;;;5032242;28;20354;-92
2022/08/20 04:27:01;;;;;;;4.10;3.60;;;25.70;92.70;;;;;;5041263;28;20226;-92
2022/08/20 04:29:27;;;;;;;4.53;4.13;;;25.60;92.70;;;;;;4983534;28;20611;-92
2022/08/20 04:31:55;;;;;;;3.60;3.30;;;25.60;93.00;;;;;;5033891;28;20263;-92
2022/08/20 04:35:08;;;;;;;5.50;3.30;;;25.60;92.70;;;;;;5043472;28;20175;-92
2022/08/20 04:38:26;;;;;;;4.90;3.67;;;25.60;92.70;;;;;;5041207;28;20171;-92
2022/08/20 04:41:07;;;;;;;5.97;4.27;;;25.60;92.80;;;;;;5034886;28;20614;-92
2022/08/20 04:46:50;;;;;;;4.60;3.53;;;25.60;92.80;;;;;;5015471;28;20764;-92
2022/08/20 04:49:16;;;;;;;4.33;3.93;;;25.50;92.80;;;;;;5043441;28;20168;-92
2022/08/20 04:51:48;;;;;;;3.60;3.30;;;25.60;92.80;;;;;;5065820;28;20237;-92
2022/08/20 04:54:48;;;;;;;3.73;3.43;;;25.60;92.70;;;;;;5044341;28;20246;-92
2022/08/20 04:57:29;;;;;;;3.60;3.30;;;25.60;92.70;;;;;;5044718;28;20187;-92
2022/08/20 04:59:55;;;;;;;7.20;6.47;;;25.60;92.80;;;;;;5014928;28;20470;-91
2022/08/20 05:02:21;;;;;;;10.63;8.93;;;25.60;92.80;;;;;;5052696;28;20230;-92
2022/08/20 05:05:07;;;;;;;7.30;6.60;;;25.60;93.40;;;;;;5046340;28;20525;-92
2022/08/20 05:07:40;;;;;;;5.43;4.90;;;25.50;94.00;;;;;;5046360;28;20231;-92
2022/08/20 05:10:09;;;;;;;4.27;3.87;;;25.50;93.30;;;;;;5042017;28;20417;-91
2022/08/20 05:12:34;;;;;;;13.70;9.80;;;25.50;93.20;;;;;;5037729;28;20564;-91
2022/08/20 05:15:00;;;;;;;5.33;4.83;;;25.50;93.70;;;;;;5037202;28;20211;-92
2022/08/20 05:17:26;;;;;;;3.43;3.13;;;25.50;93.20;;;;;;5042748;28;20213;-91
2022/08/20 05:20:30;;;;;;;3.57;3.27;;;25.50;93.00;;;;;;5039981;28;20175;-91
2022/08/20 05:23:38;;;;;;;4.00;3.70;;;25.60;93.00;;;;;;5044098;28;20187;-92
2022/08/20 05:26:25;;;;;;;4.27;3.80;;;25.60;93.00;;;;;;5040863;28;20208;-92
2022/08/20 05:35:55;;;;;;;4.37;3.77;;;25.60;93.10;;;;;;5002228;28;20178;-92
2022/08/20 05:38:26;;;;;;;4.53;3.27;;;25.50;92.80;;;;;;5002051;28;20177;-92
2022/08/20 05:40:52;;;;;;;3.70;3.40;;;25.50;92.70;;;;;;5015759;28;20492;-91
2022/08/20 05:43:32;;;;;;;4.20;3.50;;;25.50;92.60;;;;;;5002633;28;20305;-92
2022/08/20 05:45:59;;;;;;;4.00;3.53;;;25.60;92.60;;;;;;5016009;28;20156;-91
2022/08/20 05:48:25;;;;;;;7.00;3.67;;;25.60;92.50;;;;;;5024426;28;20266;-92
2022/08/20 05:50:53;;;;;;;3.60;3.30;;;25.60;92.50;;;;;;5033115;28;20520;-92
2022/08/20 05:56:18;;;;;;;4.93;3.60;;;25.60;92.40;;;;;;5045974;28;20455;-92
2022/08/20 05:58:44;;;;;;;4.27;3.97;;;25.60;92.50;;;;;;5000610;28;20588;-92
2022/08/20 06:04:23;;;;;;;3.50;3.20;;;25.60;92.60;;;;;;5039208;28;20733;-93
2022/08/20 06:04:49;;;;;;;3.80;3.50;;;25.60;92.40;;;;;;5067988;28;20653;-93
2022/08/20 06:07:24;;;;;;;4.13;3.67;;;25.60;92.40;;;;;;5051730;28;20324;-93
2022/08/20 06:10:15;;;;;;;6.03;4.00;;;25.60;92.40;;;;;;5052034;28;20269;-93
2022/08/20 06:12:53;;;;;;;4.73;4.33;;;25.60;92.40;;;;;;5048963;28;20600;-93
2022/08/20 06:15:19;;;;;;;3.83;3.43;;;25.50;92.40;;;;;;5033903;28;20231;-94
2022/08/20 06:17:45;;;;;;;5.13;4.00;;;25.50;92.70;;;;;;5039317;28;20183;-93
2022/08/20 06:20:12;;;;;;;5.53;5.03;;;25.60;92.50;;;;;;5030408;28;20180;-94
2022/08/20 06:22:38;;;;;;;4.17;3.70;;;25.50;92.60;;;;;;5048035;28;20278;-94
2022/08/20 06:25:37;;;;;;;4.47;4.07;;;25.50;92.60;;;;;;5044020;28;20210;-94
2022/08/20 06:31:26;;;;;;;4.10;3.50;;;25.50;92.70;;;;;;4984474;28;20183;-93
2022/08/20 06:34:33;;;;;;;4.40;4.00;;;25.60;92.80;;;;;;5045519;28;20230;-93
2022/08/20 06:37:30;;;;;;;5.07;4.20;;;25.60;92.90;;;;;;5046292;28;20180;-93
2022/08/20 06:40:01;;;;;;;5.20;4.30;;;25.60;92.90;;;;;;4977832;28;20185;-93
2022/08/20 06:42:30;;;;;;;4.60;4.20;;;25.60;92.90;;;;;;5027395;28;20180;-93
2022/08/20 06:44:58;;;;;;;5.47;4.00;;;25.70;92.80;;;;;;5022759;28;20176;-93
2022/08/20 06:47:24;;;;;;;4.10;3.70;;;25.60;92.80;;;;;;5043101;28;20268;-94
2022/08/20 06:49:50;;;;;;;6.03;4.00;;;25.70;92.80;;;;;;5058743;28;20172;-93
2022/08/20 06:52:16;;;;;;;4.60;3.63;;;25.70;92.80;;;;;;5059882;28;20175;-93
2022/08/20 06:54:44;;;;;;;4.40;4.00;;;25.70;92.70;;;;;;5058127;28;20206;-93
2022/08/20 06:57:20;;;;;;;5.93;3.90;;;25.70;92.80;;;;;;5044678;28;20266;-94
2022/08/20 06:59:46;;;;;;;4.50;4.03;;;25.70;92.80;;;;;;5052908;28;20170;-93
2022/08/20 07:02:12;;;;;;;6.50;3.87;;;25.70;92.70;;;;;;5052638;28;20171;-93
2022/08/20 07:04:37;;;;;;;4.00;3.60;;;25.70;92.80;;;;;;5049805;28;20199;-93
2022/08/20 07:07:03;;;;;;;4.47;3.70;;;25.70;93.00;;;;;;5053445;28;20218;-93
2022/08/20 07:09:29;;;;;;;4.40;4.00;;;25.80;92.80;;;;;;5053867;28;20183;-92
2022/08/20 07:11:55;;;;;;;4.60;4.20;;;25.90;92.80;;;;;;5035637;28;20582;-91
2022/08/20 07:14:21;;;;;;;5.47;4.30;;;25.90;92.70;;;;;;5026275;28;20282;-92
2022/08/20 07:16:48;;;;;;;4.03;3.63;;;26.00;92.60;;;;;;5038434;28;20231;-92
2022/08/20 07:19:14;;;;;;;5.67;4.10;;;26.40;91.80;;;;;;5047851;28;20183;-92
2022/08/20 07:21:40;;;;;;;6.00;3.30;;;26.50;91.00;;;;;;5043911;28;20210;-92
2022/08/20 07:28:17;;;;;;;3.93;3.53;;;26.40;91.10;;;;;;5062667;28;20307;-92
2022/08/20 07:34:30;;;;;;;4.27;3.87;;;26.30;91.50;;;;;;4981352;28;20591;-92
2022/08/20 07:37:01;;;;;;;3.80;3.50;;;26.30;91.70;;;;;;4985795;28;20186;-91
2022/08/20 07:39:26;;;;;;;4.10;3.70;;;26.20;91.70;;;;;;5033488;28;20316;-91
2022/08/20 07:42:01;;;;;;;4.80;3.83;;;26.30;91.80;;;;;;5048213;28;20180;-91
2022/08/20 07:44:29;;;;;;;4.77;4.30;;;26.20;91.70;;;;;;5025150;28;20565;-93
2022/08/20 07:50:34;;;;;;;5.03;4.00;;;26.70;91.20;;;;;;4943969;28;20195;-93
2022/08/20 07:59:38;;;;;;;5.43;3.50;;;26.70;90.50;;;;;;4937711;29;20526;-91
2022/08/20 08:05:45;;;;;;;3.80;3.40;;;27.60;85.00;;;;;;4945440;28;20214;-90
2022/08/20 08:29:25;;;;;;;3.17;2.88;;;29.50;67.00;;;;;;5066329;28;20194;-91
2022/08/20 08:31:51;;;;;;;3.43;3.20;;;29.00;69.70;;;;;;5049965;28;20214;-90
2022/08/20 08:34:18;;;;;;;3.55;3.25;;;28.70;72.10;;;;;;5051469;28;20561;-90
2022/08/20 08:36:44;;;;;;;3.33;3.03;;;28.90;72.40;;;;;;5068923;28;20440;-90
2022/08/20 08:39:10;;;;;;;2.88;2.67;;;29.10;70.70;;;;;;5053894;28;20172;-90
2022/08/20 08:41:48;;;;;;;3.35;3.05;;;29.60;68.30;;;;;;5052203;28;20435;-90
2022/08/20 08:44:26;;;;;;;3.00;2.70;;;31.10;62.60;;;;;;5051159;28;20310;-91
2022/08/20 08:46:56;;;;;;;3.10;2.90;;;32.20;58.30;;;;;;5052730;28;20210;-90
2022/08/20 08:49:32;;;;;;;3.70;3.00;;;32.30;57.20;;;;;;5050850;28;20277;-90
2022/08/20 08:52:03;;;;;;;3.42;3.13;;;32.00;56.80;;;;;;5050712;28;20171;-90
2022/08/20 08:54:32;;;;;;;3.15;2.95;;;31.10;57.90;;;;;;5050796;28;20638;-90
2022/08/20 08:56:59;;;;;;;3.17;2.90;;;30.50;59.40;;;;;;5048956;28;20260;-90
2022/08/20 08:59:28;;;;;;;3.70;2.85;;;30.00;61.50;;;;;;5048519;28;20183;-90
2022/08/20 09:01:58;;;;;;;3.50;3.20;;;30.30;61.30;;;;;;5068179;28;20237;-90
2022/08/20 09:04:38;;;;;;;3.13;2.92;;;30.00;61.70;;;;;;5052272;28;20467;-90
2022/08/20 09:07:09;;;;;;;4.00;3.60;;;29.90;62.20;;;;;;5051538;28;20309;-89
2022/08/20 09:09:38;;;;;;;4.20;3.72;;;29.50;64.30;;;;;;5054185;28;20172;-89
2022/08/20 09:12:19;;;;;;;3.75;3.45;;;29.10;66.70;;;;;;5054070;28;20171;-89
2022/08/20 09:14:47;;;;;;;4.03;3.63;;;28.90;69.30;;;;;;5070029;28;20164;-89
2022/08/20 09:17:18;;;;;;;3.92;3.63;;;28.70;70.90;;;;;;5052177;28;20218;-90
2022/08/20 09:19:44;;;;;;;4.18;3.78;;;28.70;73.10;;;;;;5052985;28;20303;-89
2022/08/20 09:22:18;;;;;;;4.28;3.92;;;28.70;71.00;;;;;;5070513;28;20453;-91
2022/08/20 09:24:44;;;;;;;4.68;4.28;;;28.70;72.90;;;;;;5071613;28;20587;-90
2022/08/20 09:27:10;;;;;;;4.50;4.20;;;28.50;73.70;;;;;;5069828;28;20195;-90
2022/08/20 09:29:37;;;;;;;5.97;4.45;;;28.90;74.70;;;;;;5070675;28;20620;-90
2022/08/20 09:32:16;;;;;;;4.70;4.22;;;28.90;72.60;;;;;;5054808;28;20237;-90
2022/08/20 09:34:50;;;;;;;6.72;6.13;;;28.80;72.30;;;;;;5072331;28;20160;-90
2022/08/20 09:37:17;;;;;;;5.70;5.03;;;28.60;75.30;;;;;;5053101;28;20544;-91
2022/08/20 09:39:42;;;;;;;5.85;5.28;;;28.50;76.00;;;;;;5053898;28;20183;-90
2022/08/20 09:42:14;;;;;;;7.70;5.80;;;28.40;76.30;;;;;;5071332;28;20171;-90
2022/08/20 09:44:40;;;;;;;6.30;5.70;;;28.30;76.90;;;;;;5052169;28;20268;-91
2022/08/20 09:47:06;;;;;;;6.50;5.90;;;28.40;77.20;;;;;;5052042;28;20284;-90
2022/08/20 09:49:32;;;;;;;7.47;6.77;;;28.40;77.00;;;;;;5069816;28;20160;-90
2022/08/20 09:52:00;;;;;;;8.13;7.43;;;28.60;76.70;;;;;;5051477;28;20487;-91
2022/08/20 09:54:28;;;;;;;9.20;8.27;;;28.80;74.40;;;;;;5069609;28;20222;-91
2022/08/20 09:56:59;;;;;;;7.60;6.80;;;28.50;77.50;;;;;;5053199;28;20203;-92
2022/08/20 09:59:27;;;;;;;10.20;9.07;;;28.30;78.60;;;;;;5053535;28;20404;-91
2022/08/20 10:01:52;;;;;;;13.63;12.37;;;28.10;81.10;;;;;;5052368;28;20171;-91
2022/08/20 10:04:18;;;;;;;9.90;9.10;;;27.90;81.30;;;;;;5070286;28;20226;-91
2022/08/20 10:06:44;;;;;;;12.43;10.77;;;28.00;81.40;;;;;;5050344;28;20303;-91
2022/08/20 10:09:10;;;;;;;9.70;8.77;;;28.00;82.50;;;;;;5049063;28;20168;-91
2022/08/20 10:11:36;;;;;;;10.30;9.20;;;28.10;80.90;;;;;;5047294;28;20167;-91
2022/08/20 10:14:03;;;;;;;13.57;10.10;;;28.10;81.50;;;;;;5048175;28;20176;-91
2022/08/20 10:16:29;;;;;;;16.10;14.60;;;28.10;81.70;;;;;;5050357;28;20477;-91
2022/08/20 10:18:56;;;;;;;11.83;10.73;;;28.10;82.30;;;;;;5067827;28;20283;-91
2022/08/20 10:21:22;;;;;;;13.93;10.73;;;28.10;83.60;;;;;;5049936;28;20546;-91
2022/08/20 10:23:48;;;;;;;16.98;13.23;;;28.30;80.70;;;;;;5049719;28;20186;-91
2022/08/20 10:26:15;;;;;;;11.90;10.63;;;28.50;80.10;;;;;;5047217;28;20222;-91
2022/08/20 10:28:59;;;;;;;12.43;11.32;;;28.60;77.00;;;;;;5049900;28;20203;-91
2022/08/20 10:31:25;;;;;;;12.98;11.77;;;28.50;77.50;;;;;;5047036;28;20233;-91
2022/08/20 10:33:51;;;;;;;14.83;13.33;;;28.30;78.50;;;;;;5047663;28;20167;-90
2022/08/20 10:36:17;;;;;;;14.87;11.60;;;28.20;79.50;;;;;;5048864;28;20208;-90
2022/08/20 10:38:45;;;;;;;12.25;11.07;;;28.20;79.60;;;;;;5066354;28;20257;-90
2022/08/20 10:41:11;;;;;;;12.15;10.82;;;28.30;78.90;;;;;;5047559;28;20183;-90
2022/08/20 10:43:36;;;;;;;13.50;12.10;;;28.50;76.90;;;;;;5046816;28;20194;-90
2022/08/20 10:46:02;;;;;;;12.85;11.13;;;28.60;75.60;;;;;;5047568;28;20237;-90
2022/08/20 10:48:28;;;;;;;17.88;14.02;;;28.70;75.00;;;;;;5047369;28;20168;-90
2022/08/20 10:50:54;;;;;;;12.50;11.27;;;28.70;75.70;;;;;;5047450;28;20266;-90
2022/08/20 10:53:20;;;;;;;12.20;10.95;;;28.70;75.10;;;;;;5048877;28;20295;-90
2022/08/20 10:55:46;;;;;;;13.77;11.48;;;28.80;73.80;;;;;;5047970;28;20167;-90
2022/08/20 10:58:12;;;;;;;11.32;10.35;;;28.80;73.90;;;;;;5047972;28;20266;-90
2022/08/20 11:00:39;;;;;;;11.82;10.20;;;28.80;74.50;;;;;;5048886;28;20172;-90
2022/08/20 11:03:05;;;;;;;11.63;10.48;;;28.90;73.20;;;;;;5049238;28;20178;-89
2022/08/20 11:05:34;;;;;;;12.75;11.52;;;28.90;72.70;;;;;;5048574;28;20195;-90
2022/08/20 11:08:03;;;;;;;13.07;10.75;;;29.00;72.30;;;;;;5048986;28;20210;-90
2022/08/20 11:10:32;;;;;;;12.73;11.43;;;29.00;72.10;;;;;;5049317;28;20178;-90
2022/08/20 11:13:03;;;;;;;11.50;10.40;;;29.00;71.30;;;;;;5067244;28;20237;-90
2022/08/20 11:15:32;;;;;;;11.93;10.85;;;29.00;71.60;;;;;;5047355;28;20172;-90
2022/08/20 11:17:58;;;;;;;11.48;10.38;;;29.00;71.90;;;;;;5065907;28;20233;-90
2022/08/20 11:20:25;;;;;;;11.65;10.55;;;29.00;71.90;;;;;;5047014;28;20168;-90
2022/08/20 11:22:52;;;;;;;11.55;10.45;;;29.00;71.90;;;;;;5046886;28;20225;-90
2022/08/20 11:25:20;;;;;;;11.40;10.30;;;29.00;72.00;;;;;;5046465;28;20253;-90
2022/08/20 11:27:48;;;;;;;11.07;10.02;;;28.90;72.70;;;;;;5048643;28;20199;-90
2022/08/20 11:30:18;;;;;;;11.98;10.55;;;28.90;72.60;;;;;;5048326;28;20416;-90
2022/08/20 11:32:44;;;;;;;10.68;9.73;;;28.90;72.20;;;;;;5046064;28;20176;-90
2022/08/20 11:35:11;;;;;;;10.20;9.20;;;28.90;71.80;;;;;;5048998;28;20174;-90
2022/08/20 11:37:36;;;;;;;10.35;9.27;;;28.90;71.80;;;;;;5050685;28;20221;-90
2022/08/20 11:40:03;;;;;;;9.82;8.82;;;28.80;72.20;;;;;;5049338;28;20184;-90
2022/08/20 11:42:29;;;;;;;10.50;8.77;;;28.70;72.20;;;;;;5047801;28;20175;-90
2022/08/20 11:44:55;;;;;;;9.90;8.90;;;28.70;72.80;;;;;;5045556;28;20175;-90
2022/08/20 11:47:25;;;;;;;9.33;8.43;;;28.70;72.70;;;;;;5044224;28;20268;-90
2022/08/20 11:50:01;;;;;;;9.05;8.35;;;28.70;72.50;;;;;;5045652;28;20171;-90
2022/08/20 11:52:28;;;;;;;9.90;8.98;;;28.80;71.70;;;;;;5045992;28;20171;-90
2022/08/20 11:54:54;;;;;;;9.93;9.02;;;28.80;71.70;;;;;;5046716;28;20590;-90
2022/08/20 11:57:26;;;;;;;9.82;8.88;;;28.80;71.80;;;;;;5065286;28;20156;-90
2022/08/20 11:59:53;;;;;;;9.38;8.55;;;28.80;72.40;;;;;;5051004;28;20379;-90
2022/08/20 12:02:19;;;;;;;9.07;8.32;;;28.80;71.60;;;;;;5067559;28;20179;-90
2022/08/20 12:04:45;;;;;;;10.85;9.73;;;28.80;71.70;;;;;;5049014;28;20353;-90
2022/08/20 12:07:14;;;;;;;10.80;9.77;;;28.90;71.40;;;;;;5047886;28;20218;-90
2022/08/20 12:09:40;;;;;;;9.30;8.50;;;28.90;71.30;;;;;;5050373;28;20241;-90
2022/08/20 12:12:06;;;;;;;9.43;8.55;;;28.80;71.40;;;;;;5064651;28;20163;-89
2022/08/20 12:14:32;;;;;;;10.57;8.80;;;28.80;71.30;;;;;;5064276;28;20474;-90
2022/08/20 12:17:06;;;;;;;8.80;8.00;;;28.80;70.90;;;;;;5066199;28;20353;-89
2022/08/20 12:19:31;;;;;;;8.88;8.02;;;28.80;71.10;;;;;;5048883;28;20171;-90
2022/08/20 12:21:57;;;;;;;8.65;7.55;;;28.80;71.00;;;;;;5048380;28;20662;-90
2022/08/20 12:24:23;;;;;;;9.98;8.80;;;28.80;71.00;;;;;;5049587;28;20218;-89
2022/08/20 12:26:49;;;;;;;8.45;7.63;;;28.80;70.60;;;;;;5050224;28;20290;-89
2022/08/20 12:29:14;;;;;;;8.30;7.60;;;28.80;70.60;;;;;;5050048;28;20584;-89
2022/08/20 12:31:40;;;;;;;8.50;7.63;;;28.80;70.10;;;;;;5048019;28;20228;-89
2022/08/20 12:34:06;;;;;;;8.25;7.43;;;28.80;70.30;;;;;;5064054;28;20168;-89
2022/08/20 12:36:32;;;;;;;8.97;7.87;;;28.80;70.30;;;;;;5046978;28;20432;-90
2022/08/20 12:38:57;;;;;;;8.57;7.63;;;28.70;70.20;;;;;;5052036;28;20182;-90
2022/08/20 12:41:23;;;;;;;8.13;7.43;;;28.70;70.60;;;;;;5052911;28;20625;-89
2022/08/20 12:43:49;;;;;;;8.70;7.70;;;28.70;70.30;;;;;;5054245;28;20167;-90
2022/08/20 12:46:14;;;;;;;8.23;7.53;;;28.70;70.10;;;;;;5051226;28;20229;-90
2022/08/20 12:48:40;;;;;;;8.60;7.80;;;28.70;70.60;;;;;;5051840;28;20385;-90
2022/08/20 12:51:06;;;;;;;7.73;6.90;;;28.70;70.70;;;;;;5048097;28;20275;-90
2022/08/20 12:53:32;;;;;;;7.53;6.93;;;28.60;70.70;;;;;;5050835;28;20184;-91
2022/08/20 12:55:57;;;;;;;8.40;7.50;;;28.60;70.80;;;;;;5053449;28;20221;-91
2022/08/20 12:58:23;;;;;;;7.32;6.72;;;28.60;70.50;;;;;;5052056;28;20561;-91
2022/08/20 13:00:49;;;;;;;7.70;7.00;;;28.60;71.60;;;;;;5051451;28;20203;-90
2022/08/20 13:03:15;;;;;;;7.70;7.00;;;28.60;70.80;;;;;;5069240;28;20473;-90
2022/08/20 13:05:41;;;;;;;7.13;6.53;;;28.60;70.90;;;;;;5051319;28;20191;-90
2022/08/20 13:08:09;;;;;;;7.38;6.72;;;28.60;70.80;;;;;;5051617;28;20199;-91
2022/08/20 13:10:42;;;;;;;7.95;7.18;;;28.60;71.00;;;;;;5049492;28;20341;-90
2022/08/20 13:13:09;;;;;;;7.70;7.00;;;28.60;71.00;;;;;;5047275;28;20178;-91
2022/08/20 13:15:35;;;;;;;7.90;7.20;;;28.60;71.30;;;;;;5051361;28;20195;-90
2022/08/20 13:18:03;;;;;;;9.67;7.10;;;28.60;71.20;;;;;;5050801;28;20764;-90
2022/08/20 13:20:30;;;;;;;7.13;6.53;;;28.60;70.60;;;;;;5050073;28;20286;-90
2022/08/20 13:22:56;;;;;;;7.30;6.60;;;28.50;70.90;;;;;;5052222;28;20198;-90
2022/08/20 13:25:22;;;;;;;7.23;6.53;;;28.50;71.00;;;;;;5053073;28;20539;-90
2022/08/20 13:27:53;;;;;;;7.00;6.40;;;28.60;70.90;;;;;;5051859;28;20265;-90
2022/08/20 13:30:19;;;;;;;8.77;7.75;;;28.60;70.90;;;;;;5049469;28;20538;-89
2022/08/20 13:32:45;;;;;;;7.18;6.53;;;28.60;71.00;;;;;;5050935;28;20168;-91
2022/08/20 13:35:12;;;;;;;7.28;6.68;;;28.50;70.60;;;;;;5048587;28;20195;-90
2022/08/20 13:37:40;;;;;;;7.00;6.40;;;28.50;71.20;;;;;;5046889;28;20171;-90
2022/08/20 13:40:07;;;;;;;7.30;6.60;;;28.50;71.40;;;;;;5065321;28;20164;-90
2022/08/20 13:42:34;;;;;;;6.95;6.35;;;28.50;70.60;;;;;;5050016;28;20183;-90
2022/08/20 13:44:59;;;;;;;8.45;7.55;;;28.50;71.50;;;;;;5050588;28;20691;-90
2022/08/20 13:47:32;;;;;;;8.02;7.15;;;28.50;70.90;;;;;;5049974;28;20262;-90
2022/08/20 13:50:03;;;;;;;12.17;10.90;;;28.50;70.20;;;;;;5048306;28;20163;-92
2022/08/20 13:52:30;;;;;;;7.23;6.60;;;28.50;69.70;;;;;;5066681;28;20191;-91
2022/08/20 13:54:56;;;;;;;7.10;6.40;;;28.50;71.00;;;;;;5050230;28;20168;-91
2022/08/20 13:57:23;;;;;;;8.50;6.90;;;28.50;71.00;;;;;;5047944;28;20182;-91
2022/08/20 13:59:52;;;;;;;7.10;6.40;;;28.50;70.70;;;;;;5065976;28;20228;-92
2022/08/20 14:02:18;;;;;;;7.10;6.40;;;28.50;70.00;;;;;;5049537;28;20171;-92
2022/08/20 14:04:46;;;;;;;8.20;6.23;;;28.40;69.70;;;;;;5048706;28;20317;-91
2022/08/20 14:07:25;;;;;;;7.37;6.67;;;28.50;68.30;;;;;;5047112;28;20275;-92
2022/08/20 14:09:56;;;;;;;7.17;6.47;;;28.50;69.70;;;;;;5049121;28;20612;-90
2022/08/20 14:12:24;;;;;;;7.30;6.60;;;28.60;68.10;;;;;;5051315;28;20247;-91
2022/08/20 14:14:50;;;;;;;7.13;6.53;;;28.50;66.90;;;;;;5053874;28;20207;-91
2022/08/20 14:17:20;;;;;;;6.47;5.77;;;28.50;66.60;;;;;;5052001;28;20179;-91
2022/08/20 14:19:47;;;;;;;11.87;10.67;;;28.50;66.20;;;;;;5054103;28;20203;-91
2022/08/20 14:22:17;;;;;;;5.90;5.30;;;28.50;65.40;;;;;;5052732;28;20507;-91
2022/08/20 14:24:45;;;;;;;6.78;6.10;;;28.60;67.80;;;;;;5054439;28;20537;-91
2022/08/20 14:27:12;;;;;;;6.25;5.72;;;28.60;66.80;;;;;;5051369;28;20203;-92
2022/08/20 14:29:40;;;;;;;6.53;5.93;;;28.60;68.40;;;;;;5064300;28;20163;-92
2022/08/20 14:32:06;;;;;;;9.70;7.32;;;28.60;67.60;;;;;;5047147;28;20322;-91